sensor_id;sensor_type;location;lat;lon;timestamp;pressure;altitude;pressure_sealevel;temperature
48628;BMP280;34424;52.234;6.500;2024-01-27T00:04:17;103221;;;-1.38
48628;BMP280;34424;52.234;6.500;2024-01-27T00:09:17;103234.9;;;-1.48
48628;BMP280;34424;52.234;6.500;2024-01-27T00:14:17;103229.8;;;-1.52
48628;BMP280;34424;52.234;6.500;2024-01-27T00:19:18;103230.6;;;-1.45
48628;BMP280;34424;52.234;6.500;2024-01-27T00:24:17;103224.5;;;-1.45
48628;BMP280;34424;52.234;6.500;2024-01-27T00:29:17;103223.6;;;-1.25
48628;BMP280;34424;52.234;6.500;2024-01-27T00:34:18;103230.8;;;-1.14
48628;BMP280;34424;52.234;6.500;2024-01-27T00:39:18;103236.9;;;-1.14
48628;BMP280;34424;52.234;6.500;2024-01-27T00:44:17;103236.9;;;-1.11
48628;BMP280;34424;52.234;6.500;2024-01-27T00:49:18;103250.9;;;-1.05
48628;BMP280;34424;52.234;6.500;2024-01-27T00:54:18;103249.5;;;-0.81
48628;BMP280;34424;52.234;6.500;2024-01-27T00:59:17;103255;;;-0.97
48628;BMP280;34424;52.234;6.500;2024-01-27T01:04:18;103259.5;;;-1.09
48628;BMP280;34424;52.234;6.500;2024-01-27T01:09:18;103253.5;;;-1.35
48628;BMP280;34424;52.234;6.500;2024-01-27T01:14:18;103258;;;-1.51
48628;BMP280;34424;52.234;6.500;2024-01-27T01:19:18;103249.6;;;-1.65
48628;BMP280;34424;52.234;6.500;2024-01-27T01:24:18;103247;;;-1.64
48628;BMP280;34424;52.234;6.500;2024-01-27T01:29:18;103253.2;;;-1.77
48628;BMP280;34424;52.234;6.500;2024-01-27T01:34:18;103255.7;;;-1.66
48628;BMP280;34424;52.234;6.500;2024-01-27T01:39:18;103260;;;-1.53
48628;BMP280;34424;52.234;6.500;2024-01-27T01:44:18;103272;;;-1.62
48628;BMP280;34424;52.234;6.500;2024-01-27T01:49:18;103265.5;;;-1.76
48628;BMP280;34424;52.234;6.500;2024-01-27T01:54:18;103261.4;;;-1.84
48628;BMP280;34424;52.234;6.500;2024-01-27T01:59:18;103279;;;-1.72
48628;BMP280;34424;52.234;6.500;2024-01-27T02:04:18;103271.7;;;-1.25
48628;BMP280;34424;52.234;6.500;2024-01-27T02:09:18;103287.1;;;-1.15
48628;BMP280;34424;52.234;6.500;2024-01-27T02:14:18;103280;;;-1.04
48628;BMP280;34424;52.234;6.500;2024-01-27T02:19:18;103284.1;;;-1.16
48628;BMP280;34424;52.234;6.500;2024-01-27T02:24:18;103281.1;;;-1.4
48628;BMP280;34424;52.234;6.500;2024-01-27T02:29:18;103283.1;;;-1.61
48628;BMP280;34424;52.234;6.500;2024-01-27T02:34:18;103282;;;-1.82
48628;BMP280;34424;52.234;6.500;2024-01-27T02:39:18;103273.4;;;-1.89
48628;BMP280;34424;52.234;6.500;2024-01-27T02:44:18;103268.5;;;-1.96
48628;BMP280;34424;52.234;6.500;2024-01-27T02:49:18;103269.4;;;-1.99
48628;BMP280;34424;52.234;6.500;2024-01-27T02:54:18;103267.5;;;-1.74
48628;BMP280;34424;52.234;6.500;2024-01-27T02:59:18;103271.1;;;-1.46
48628;BMP280;34424;52.234;6.500;2024-01-27T03:04:18;103275;;;-1.52
48628;BMP280;34424;52.234;6.500;2024-01-27T03:09:18;103276.1;;;-1.65
48628;BMP280;34424;52.234;6.500;2024-01-27T03:14:18;103270.4;;;-1.78
48628;BMP280;34424;52.234;6.500;2024-01-27T03:19:18;103280.5;;;-1.82
48628;BMP280;34424;52.234;6.500;2024-01-27T03:24:18;103272.2;;;-1.74
48628;BMP280;34424;52.234;6.500;2024-01-27T03:29:18;103270.7;;;-1.62
48628;BMP280;34424;52.234;6.500;2024-01-27T03:34:18;103278.5;;;-1.51
48628;BMP280;34424;52.234;6.500;2024-01-27T03:39:18;103283.3;;;-1.41
48628;BMP280;34424;52.234;6.500;2024-01-27T03:44:18;103283;;;-1.33
48628;BMP280;34424;52.234;6.500;2024-01-27T03:49:18;103278.6;;;-1.29
48628;BMP280;34424;52.234;6.500;2024-01-27T03:54:18;103287.1;;;-1.35
48628;BMP280;34424;52.234;6.500;2024-01-27T03:59:18;103280.9;;;-1.46
48628;BMP280;34424;52.234;6.500;2024-01-27T04:04:18;103292;;;-1.51
48628;BMP280;34424;52.234;6.500;2024-01-27T04:09:18;103300.9;;;-1.58
48628;BMP280;34424;52.234;6.500;2024-01-27T04:14:18;103305.5;;;-1.67
48628;BMP280;34424;52.234;6.500;2024-01-27T04:19:18;103304.4;;;-1.58
48628;BMP280;34424;52.234;6.500;2024-01-27T04:24:18;103304.5;;;-1.65
48628;BMP280;34424;52.234;6.500;2024-01-27T04:29:18;103308.7;;;-1.69
48628;BMP280;34424;52.234;6.500;2024-01-27T04:34:18;103300;;;-1.73
48628;BMP280;34424;52.234;6.500;2024-01-27T04:39:18;103299.8;;;-1.6
48628;BMP280;34424;52.234;6.500;2024-01-27T04:44:18;103295.8;;;-1.32
48628;BMP280;34424;52.234;6.500;2024-01-27T04:49:18;103305.2;;;-1.18
48628;BMP280;34424;52.234;6.500;2024-01-27T04:54:18;103299.7;;;-1.12
48628;BMP280;34424;52.234;6.500;2024-01-27T04:59:18;103297.4;;;-0.99
48628;BMP280;34424;52.234;6.500;2024-01-27T05:04:18;103283;;;-1.26
48628;BMP280;34424;52.234;6.500;2024-01-27T05:09:18;103281.6;;;-1.49
48628;BMP280;34424;52.234;6.500;2024-01-27T05:14:18;103281.5;;;-1.49
48628;BMP280;34424;52.234;6.500;2024-01-27T05:19:18;103290.3;;;-1.52
48628;BMP280;34424;52.234;6.500;2024-01-27T05:24:18;103291.4;;;-1.26
48628;BMP280;34424;52.234;6.500;2024-01-27T05:29:18;103292.4;;;-1.38
48628;BMP280;34424;52.234;6.500;2024-01-27T05:34:18;103304.1;;;-1.32
48628;BMP280;34424;52.234;6.500;2024-01-27T05:39:18;103298.4;;;-1.38
48628;BMP280;34424;52.234;6.500;2024-01-27T05:44:18;103295.2;;;-1.46
48628;BMP280;34424;52.234;6.500;2024-01-27T05:49:18;103297.6;;;-1.52
48628;BMP280;34424;52.234;6.500;2024-01-27T05:54:18;103300;;;-1.47
48628;BMP280;34424;52.234;6.500;2024-01-27T05:59:18;103300.6;;;-1.35
48628;BMP280;34424;52.234;6.500;2024-01-27T06:04:18;103305;;;-1.39
48628;BMP280;34424;52.234;6.500;2024-01-27T06:09:18;103300.4;;;-1.45
48628;BMP280;34424;52.234;6.500;2024-01-27T06:14:18;103308;;;-1.47
48628;BMP280;34424;52.234;6.500;2024-01-27T06:19:18;103307.1;;;-1.57
48628;BMP280;34424;52.234;6.500;2024-01-27T06:24:18;103322.1;;;-1.78
48628;BMP280;34424;52.234;6.500;2024-01-27T06:29:18;103324.4;;;-1.92
48628;BMP280;34424;52.234;6.500;2024-01-27T06:34:18;103325.5;;;-2.16
48628;BMP280;34424;52.234;6.500;2024-01-27T06:39:18;103324.2;;;-2.3
48628;BMP280;34424;52.234;6.500;2024-01-27T06:44:18;103328.6;;;-2.54
48628;BMP280;34424;52.234;6.500;2024-01-27T06:49:18;103330.1;;;-2.5
48628;BMP280;34424;52.234;6.500;2024-01-27T06:54:18;103343.2;;;-2.38
48628;BMP280;34424;52.234;6.500;2024-01-27T06:59:18;103343;;;-2.44
48628;BMP280;34424;52.234;6.500;2024-01-27T07:04:18;103342.5;;;-2.6
48628;BMP280;34424;52.234;6.500;2024-01-27T07:09:18;103337.5;;;-2.63
48628;BMP280;34424;52.234;6.500;2024-01-27T07:14:18;103342.1;;;-2.4
48628;BMP280;34424;52.234;6.500;2024-01-27T07:19:18;103349.9;;;-2.48
48628;BMP280;34424;52.234;6.500;2024-01-27T07:24:18;103346.1;;;-2.47
48628;BMP280;34424;52.234;6.500;2024-01-27T07:29:18;103344.8;;;-2.45
48628;BMP280;34424;52.234;6.500;2024-01-27T07:34:18;103351.3;;;-2.42
48628;BMP280;34424;52.234;6.500;2024-01-27T07:39:18;103355.1;;;-2.33
48628;BMP280;34424;52.234;6.500;2024-01-27T07:44:18;103363.2;;;-2.24
48628;BMP280;34424;52.234;6.500;2024-01-27T07:49:18;103366.5;;;-2.07
48628;BMP280;34424;52.234;6.500;2024-01-27T07:54:18;103363.7;;;-2
48628;BMP280;34424;52.234;6.500;2024-01-27T07:59:18;103372.1;;;-1.92
48628;BMP280;34424;52.234;6.500;2024-01-27T08:04:18;103371.5;;;-1.74
48628;BMP280;34424;52.234;6.500;2024-01-27T08:09:18;103363.7;;;-1.61
48628;BMP280;34424;52.234;6.500;2024-01-27T08:14:18;103363.7;;;-1.4
48628;BMP280;34424;52.234;6.500;2024-01-27T08:19:18;103377.7;;;-0.86
48628;BMP280;34424;52.234;6.500;2024-01-27T08:24:18;103382.6;;;1.29
48628;BMP280;34424;52.234;6.500;2024-01-27T08:29:18;103380.7;;;2.28
48628;BMP280;34424;52.234;6.500;2024-01-27T08:34:18;103392.2;;;2.86
48628;BMP280;34424;52.234;6.500;2024-01-27T08:39:18;103387;;;3.29
48628;BMP280;34424;52.234;6.500;2024-01-27T08:44:18;103381.1;;;3.78
48628;BMP280;34424;52.234;6.500;2024-01-27T08:49:18;103391.5;;;4.98
48628;BMP280;34424;52.234;6.500;2024-01-27T08:54:18;103399.9;;;5.48
48628;BMP280;34424;52.234;6.500;2024-01-27T08:59:18;103399.5;;;5.39
48628;BMP280;34424;52.234;6.500;2024-01-27T09:04:18;103397.4;;;6.05
48628;BMP280;34424;52.234;6.500;2024-01-27T09:09:18;103405.8;;;6.52
48628;BMP280;34424;52.234;6.500;2024-01-27T09:14:18;103416.1;;;7.12
48628;BMP280;34424;52.234;6.500;2024-01-27T09:19:18;103415.6;;;7.11
48628;BMP280;34424;52.234;6.500;2024-01-27T09:24:18;103410.3;;;6.65
48628;BMP280;34424;52.234;6.500;2024-01-27T09:29:18;103403.3;;;6.36
48628;BMP280;34424;52.234;6.500;2024-01-27T09:34:18;103393.3;;;6.14
48628;BMP280;34424;52.234;6.500;2024-01-27T09:39:18;103406.3;;;5.77
48628;BMP280;34424;52.234;6.500;2024-01-27T09:44:18;103406.4;;;6.57
48628;BMP280;34424;52.234;6.500;2024-01-27T09:49:18;103406.2;;;6.78
48628;BMP280;34424;52.234;6.500;2024-01-27T09:54:18;103412.1;;;7.23
48628;BMP280;34424;52.234;6.500;2024-01-27T09:59:18;103411.2;;;8.04
48628;BMP280;34424;52.234;6.500;2024-01-27T10:04:18;103415.5;;;9.02
48628;BMP280;34424;52.234;6.500;2024-01-27T10:09:18;103418.6;;;9.23
48628;BMP280;34424;52.234;6.500;2024-01-27T10:14:18;103424.2;;;9.72
48628;BMP280;34424;52.234;6.500;2024-01-27T10:19:18;103425.2;;;10.46
48628;BMP280;34424;52.234;6.500;2024-01-27T10:24:18;103429;;;10.88
48628;BMP280;34424;52.234;6.500;2024-01-27T10:29:18;103425.7;;;10.9
48628;BMP280;34424;52.234;6.500;2024-01-27T10:34:19;103423.5;;;11.12
48628;BMP280;34424;52.234;6.500;2024-01-27T10:39:20;103417;;;11.55
48628;BMP280;34424;52.234;6.500;2024-01-27T10:44:19;103418.8;;;11.7
48628;BMP280;34424;52.234;6.500;2024-01-27T10:49:18;103425;;;11.47
48628;BMP280;34424;52.234;6.500;2024-01-27T10:54:18;103425.8;;;11.53
48628;BMP280;34424;52.234;6.500;2024-01-27T10:59:18;103420.8;;;10.85
48628;BMP280;34424;52.234;6.500;2024-01-27T11:04:18;103424.6;;;10.74
48628;BMP280;34424;52.234;6.500;2024-01-27T11:09:18;103423.1;;;10.32
48628;BMP280;34424;52.234;6.500;2024-01-27T11:14:18;103429.5;;;10.94
48628;BMP280;34424;52.234;6.500;2024-01-27T11:19:18;103421.6;;;11.15
48628;BMP280;34424;52.234;6.500;2024-01-27T11:24:18;103410.9;;;11.56
48628;BMP280;34424;52.234;6.500;2024-01-27T11:29:18;103416.8;;;11.08
48628;BMP280;34424;52.234;6.500;2024-01-27T11:34:18;103421;;;11.09
48628;BMP280;34424;52.234;6.500;2024-01-27T11:44:18;103409.2;;;11.02
48628;BMP280;34424;52.234;6.500;2024-01-27T11:49:18;103411.7;;;11.71
48628;BMP280;34424;52.234;6.500;2024-01-27T11:54:18;103416.6;;;11.94
48628;BMP280;34424;52.234;6.500;2024-01-27T11:59:18;103413.8;;;12.21
48628;BMP280;34424;52.234;6.500;2024-01-27T12:04:18;103428.5;;;11.89
48628;BMP280;34424;52.234;6.500;2024-01-27T12:09:18;103434.3;;;11.78
48628;BMP280;34424;52.234;6.500;2024-01-27T12:14:18;103424.5;;;12.26
48628;BMP280;34424;52.234;6.500;2024-01-27T12:19:18;103413.5;;;12.13
48628;BMP280;34424;52.234;6.500;2024-01-27T12:24:19;103414.7;;;12.29
48628;BMP280;34424;52.234;6.500;2024-01-27T12:29:18;103415.4;;;12.28
48628;BMP280;34424;52.234;6.500;2024-01-27T12:34:18;103424.5;;;12.44
48628;BMP280;34424;52.234;6.500;2024-01-27T12:39:18;103409.7;;;11.69
48628;BMP280;34424;52.234;6.500;2024-01-27T12:44:18;103406.2;;;12.02
48628;BMP280;34424;52.234;6.500;2024-01-27T12:49:18;103406.2;;;12.07
48628;BMP280;34424;52.234;6.500;2024-01-27T12:54:18;103406.3;;;11.73
48628;BMP280;34424;52.234;6.500;2024-01-27T12:59:18;103393.7;;;11.93
48628;BMP280;34424;52.234;6.500;2024-01-27T13:04:18;103398.4;;;12.3
48628;BMP280;34424;52.234;6.500;2024-01-27T13:09:18;103375.8;;;12.13
48628;BMP280;34424;52.234;6.500;2024-01-27T13:14:18;103386.3;;;11.82
48628;BMP280;34424;52.234;6.500;2024-01-27T13:19:18;103390;;;12.38
48628;BMP280;34424;52.234;6.500;2024-01-27T13:24:18;103387.3;;;11.31
48628;BMP280;34424;52.234;6.500;2024-01-27T13:29:18;103393.3;;;11.01
48628;BMP280;34424;52.234;6.500;2024-01-27T13:34:18;103389.5;;;11.01
48628;BMP280;34424;52.234;6.500;2024-01-27T13:39:18;103386.5;;;10.78
48628;BMP280;34424;52.234;6.500;2024-01-27T13:44:18;103385.4;;;10.32
48628;BMP280;34424;52.234;6.500;2024-01-27T13:49:18;103390.9;;;9.61
48628;BMP280;34424;52.234;6.500;2024-01-27T13:54:18;103388.1;;;8.67
48628;BMP280;34424;52.234;6.500;2024-01-27T13:59:18;103386.3;;;8.93
48628;BMP280;34424;52.234;6.500;2024-01-27T14:04:18;103383.3;;;8.99
48628;BMP280;34424;52.234;6.500;2024-01-27T14:09:18;103387.8;;;8.95
48628;BMP280;34424;52.234;6.500;2024-01-27T14:14:18;103384.4;;;8.45
48628;BMP280;34424;52.234;6.500;2024-01-27T14:19:18;103373.3;;;7.77
48628;BMP280;34424;52.234;6.500;2024-01-27T14:24:18;103387.1;;;7.66
48628;BMP280;34424;52.234;6.500;2024-01-27T14:29:18;103384.6;;;7.44
48628;BMP280;34424;52.234;6.500;2024-01-27T14:34:18;103382.7;;;7.47
48628;BMP280;34424;52.234;6.500;2024-01-27T14:39:18;103389.6;;;7.01
48628;BMP280;34424;52.234;6.500;2024-01-27T14:44:18;103384;;;6.6
48628;BMP280;34424;52.234;6.500;2024-01-27T14:49:18;103385.7;;;6.39
48628;BMP280;34424;52.234;6.500;2024-01-27T14:54:18;103389.2;;;6.24
48628;BMP280;34424;52.234;6.500;2024-01-27T14:59:18;103386.7;;;6.07
48628;BMP280;34424;52.234;6.500;2024-01-27T15:04:18;103377.8;;;5.87
48628;BMP280;34424;52.234;6.500;2024-01-27T15:09:18;103372.7;;;5.72
48628;BMP280;34424;52.234;6.500;2024-01-27T15:14:18;103379.2;;;5.52
48628;BMP280;34424;52.234;6.500;2024-01-27T15:19:18;103380.6;;;5.22
48628;BMP280;34424;52.234;6.500;2024-01-27T15:24:18;103376.4;;;4.98
48628;BMP280;34424;52.234;6.500;2024-01-27T15:29:18;103387.4;;;4.73
48628;BMP280;34424;52.234;6.500;2024-01-27T15:34:18;103392.6;;;4.53
48628;BMP280;34424;52.234;6.500;2024-01-27T15:39:18;103390.7;;;4.4
48628;BMP280;34424;52.234;6.500;2024-01-27T15:44:18;103389.5;;;4.15
48628;BMP280;34424;52.234;6.500;2024-01-27T15:49:18;103387.9;;;3.92
48628;BMP280;34424;52.234;6.500;2024-01-27T15:54:18;103393.9;;;3.62
48628;BMP280;34424;52.234;6.500;2024-01-27T15:59:18;103388.3;;;3.44
48628;BMP280;34424;52.234;6.500;2024-01-27T16:04:18;103386.9;;;3.2
48628;BMP280;34424;52.234;6.500;2024-01-27T16:09:18;103380.9;;;2.83
48628;BMP280;34424;52.234;6.500;2024-01-27T16:14:18;103378.6;;;2.47
48628;BMP280;34424;52.234;6.500;2024-01-27T16:19:18;103384.7;;;2.12
48628;BMP280;34424;52.234;6.500;2024-01-27T16:24:18;103390.8;;;1.86
48628;BMP280;34424;52.234;6.500;2024-01-27T16:29:18;103389.5;;;1.61
48628;BMP280;34424;52.234;6.500;2024-01-27T16:34:18;103389.2;;;1.25
48628;BMP280;34424;52.234;6.500;2024-01-27T16:39:18;103384.9;;;1.01
48628;BMP280;34424;52.234;6.500;2024-01-27T16:44:18;103370.8;;;0.71
48628;BMP280;34424;52.234;6.500;2024-01-27T16:49:18;103394;;;0.63
48628;BMP280;34424;52.234;6.500;2024-01-27T16:54:18;103387.8;;;0.59
48628;BMP280;34424;52.234;6.500;2024-01-27T16:59:18;103385.5;;;0.59
48628;BMP280;34424;52.234;6.500;2024-01-27T17:04:18;103389;;;0.61
48628;BMP280;34424;52.234;6.500;2024-01-27T17:09:18;103390.7;;;0.43
48628;BMP280;34424;52.234;6.500;2024-01-27T17:14:18;103394;;;0.22
48628;BMP280;34424;52.234;6.500;2024-01-27T17:19:18;103393.7;;;0.05
48628;BMP280;34424;52.234;6.500;2024-01-27T17:24:18;103385.6;;;-0.18
48628;BMP280;34424;52.234;6.500;2024-01-27T17:29:18;103385.1;;;-0.38
48628;BMP280;34424;52.234;6.500;2024-01-27T17:34:18;103381.9;;;-0.54
48628;BMP280;34424;52.234;6.500;2024-01-27T17:39:18;103376.1;;;-0.67
48628;BMP280;34424;52.234;6.500;2024-01-27T17:44:18;103379.8;;;-0.82
48628;BMP280;34424;52.234;6.500;2024-01-27T17:49:18;103376.8;;;-0.92
48628;BMP280;34424;52.234;6.500;2024-01-27T17:54:18;103385.5;;;-0.94
48628;BMP280;34424;52.234;6.500;2024-01-27T17:59:18;103388;;;-0.93
48628;BMP280;34424;52.234;6.500;2024-01-27T18:04:18;103393.3;;;-0.91
48628;BMP280;34424;52.234;6.500;2024-01-27T18:09:18;103395.5;;;-0.98
48628;BMP280;34424;52.234;6.500;2024-01-27T18:14:18;103394.4;;;-1.09
48628;BMP280;34424;52.234;6.500;2024-01-27T18:19:18;103387.5;;;-1.16
48628;BMP280;34424;52.234;6.500;2024-01-27T18:24:18;103387.8;;;-1.22
48628;BMP280;34424;52.234;6.500;2024-01-27T18:29:18;103382.5;;;-1.3
48628;BMP280;34424;52.234;6.500;2024-01-27T18:34:18;103384.4;;;-1.37
48628;BMP280;34424;52.234;6.500;2024-01-27T18:39:18;103392.1;;;-1.42
48628;BMP280;34424;52.234;6.500;2024-01-27T18:44:18;103398.4;;;-1.45
48628;BMP280;34424;52.234;6.500;2024-01-27T18:49:18;103407.4;;;-1.43
48628;BMP280;34424;52.234;6.500;2024-01-27T18:54:18;103398.3;;;-1.34
48628;BMP280;34424;52.234;6.500;2024-01-27T18:59:18;103390.2;;;-1.39
48628;BMP280;34424;52.234;6.500;2024-01-27T19:04:18;103396.1;;;-1.46
48628;BMP280;34424;52.234;6.500;2024-01-27T19:09:18;103395.8;;;-1.44
48628;BMP280;34424;52.234;6.500;2024-01-27T19:14:18;103394.6;;;-1.46
48628;BMP280;34424;52.234;6.500;2024-01-27T19:19:18;103396;;;-1.57
48628;BMP280;34424;52.234;6.500;2024-01-27T19:24:18;103396.9;;;-1.66
48628;BMP280;34424;52.234;6.500;2024-01-27T19:29:18;103398.4;;;-1.69
48628;BMP280;34424;52.234;6.500;2024-01-27T19:34:18;103398.1;;;-1.68
48628;BMP280;34424;52.234;6.500;2024-01-27T19:39:18;103389.7;;;-1.67
48628;BMP280;34424;52.234;6.500;2024-01-27T19:44:18;103390.8;;;-1.6
48628;BMP280;34424;52.234;6.500;2024-01-27T19:49:18;103402.5;;;-1.69
48628;BMP280;34424;52.234;6.500;2024-01-27T19:54:18;103414.4;;;-1.79
48628;BMP280;34424;52.234;6.500;2024-01-27T19:59:18;103411.5;;;-1.82
48628;BMP280;34424;52.234;6.500;2024-01-27T20:04:18;103411.1;;;-1.97
48628;BMP280;34424;52.234;6.500;2024-01-27T20:09:18;103421.6;;;-2.04
48628;BMP280;34424;52.234;6.500;2024-01-27T20:14:18;103406;;;-2.13
48628;BMP280;34424;52.234;6.500;2024-01-27T20:19:18;103405.4;;;-2.18
48628;BMP280;34424;52.234;6.500;2024-01-27T20:24:18;103398.8;;;-2.21
48628;BMP280;34424;52.234;6.500;2024-01-27T20:29:18;103390.1;;;-2.31
48628;BMP280;34424;52.234;6.500;2024-01-27T20:34:18;103374.8;;;-2.18
48628;BMP280;34424;52.234;6.500;2024-01-27T20:39:18;103364.8;;;-2.04
48628;BMP280;34424;52.234;6.500;2024-01-27T20:44:18;103364.8;;;-2.09
48628;BMP280;34424;52.234;6.500;2024-01-27T20:49:18;103359.3;;;-2.19
48628;BMP280;34424;52.234;6.500;2024-01-27T20:54:18;103352.7;;;-2.3
48628;BMP280;34424;52.234;6.500;2024-01-27T20:59:18;103353.4;;;-2.42
48628;BMP280;34424;52.234;6.500;2024-01-27T21:04:18;103352.3;;;-2.52
48628;BMP280;34424;52.234;6.500;2024-01-27T21:09:18;103358;;;-2.56
48628;BMP280;34424;52.234;6.500;2024-01-27T21:14:18;103345.5;;;-2.59
48628;BMP280;34424;52.234;6.500;2024-01-27T21:19:18;103337.8;;;-2.49
48628;BMP280;34424;52.234;6.500;2024-01-27T21:24:18;103339.5;;;-2.55
48628;BMP280;34424;52.234;6.500;2024-01-27T21:29:18;103338.6;;;-2.51
48628;BMP280;34424;52.234;6.500;2024-01-27T21:34:18;103337.6;;;-2.53
48628;BMP280;34424;52.234;6.500;2024-01-27T21:39:18;103338;;;-2.63
48628;BMP280;34424;52.234;6.500;2024-01-27T21:44:18;103334.1;;;-2.64
48628;BMP280;34424;52.234;6.500;2024-01-27T21:49:18;103333.1;;;-2.69
48628;BMP280;34424;52.234;6.500;2024-01-27T21:54:18;103322;;;-2.74
48628;BMP280;34424;52.234;6.500;2024-01-27T21:59:18;103321.1;;;-2.73
48628;BMP280;34424;52.234;6.500;2024-01-27T22:04:18;103319.5;;;-2.71
48628;BMP280;34424;52.234;6.500;2024-01-27T22:09:18;103322;;;-2.72
48628;BMP280;34424;52.234;6.500;2024-01-27T22:14:18;103315.8;;;-2.76
48628;BMP280;34424;52.234;6.500;2024-01-27T22:19:18;103320.8;;;-2.82
48628;BMP280;34424;52.234;6.500;2024-01-27T22:24:18;103317.8;;;-2.94
48628;BMP280;34424;52.234;6.500;2024-01-27T22:29:18;103309.9;;;-3.05
48628;BMP280;34424;52.234;6.500;2024-01-27T22:34:18;103298.9;;;-3.17
48628;BMP280;34424;52.234;6.500;2024-01-27T22:39:18;103293.2;;;-3.09
48628;BMP280;34424;52.234;6.500;2024-01-27T22:44:18;103292.8;;;-3.05
48628;BMP280;34424;52.234;6.500;2024-01-27T22:49:18;103291.8;;;-3
48628;BMP280;34424;52.234;6.500;2024-01-27T22:54:18;103293.9;;;-2.99
48628;BMP280;34424;52.234;6.500;2024-01-27T22:59:18;103289.6;;;-3.1
48628;BMP280;34424;52.234;6.500;2024-01-27T23:04:18;103286.8;;;-3.17
48628;BMP280;34424;52.234;6.500;2024-01-27T23:09:18;103281;;;-3.33
48628;BMP280;34424;52.234;6.500;2024-01-27T23:14:18;103276.3;;;-3.5
48628;BMP280;34424;52.234;6.500;2024-01-27T23:19:18;103270.6;;;-3.62
48628;BMP280;34424;52.234;6.500;2024-01-27T23:24:18;103260.6;;;-3.72
48628;BMP280;34424;52.234;6.500;2024-01-27T23:29:18;103256.1;;;-3.76
48628;BMP280;34424;52.234;6.500;2024-01-27T23:34:18;103247.2;;;-3.75
48628;BMP280;34424;52.234;6.500;2024-01-27T23:39:18;103251.3;;;-3.71
48628;BMP280;34424;52.234;6.500;2024-01-27T23:44:18;103249.9;;;-3.68
48628;BMP280;34424;52.234;6.500;2024-01-27T23:49:18;103235.5;;;-3.7
48628;BMP280;34424;52.234;6.500;2024-01-27T23:54:18;103239.1;;;-3.69
48628;BMP280;34424;52.234;6.500;2024-01-27T23:59:18;103240.4;;;-3.61
